Other Surface Observations
Issued by NWS Great Falls, MT

Home | Current Version | Previous Version | Text Only | Print | Product List | Glossary On
Versions: 1 2 3 4 5 6 7 8 9 10 11 12 13 14 15 16 17 18 19 20 21 22 23 24 25 26 27 28 29 30 31 32 33 34 35 36 37 38 39 40 41 42 43 44 45 46 47 48 49 50
695
SXUS55 KTFX 122044
OSOTFX
AREA AWOS OBSERVATIONS
NATIONAL WEATHER SERVICE GREAT FALLS MT
0144 PM MST TUE DEC 12 2017

METAR KPWD 122045Z AUTO 27009KT 10SM 11/M08 A2976 RMK PLENTYWOOD
METAR K1S3 122045Z AUTO 24009G14KT 16/M12 A2997 RMK FORSYTH
METAR KS71 122045Z AUTO 25024G34KT 10SM 14/M14 A2995 RMK CHINOOK
METAR K38S 122045Z AUTO 00000KT 10SM M03/M07 A3036 RMK DEER LODGE
METAR K3U3 122045Z AUTO 00000KT 10SM M03/M08 A3033 RMK ANACONDA
METAR K6S5 122045Z AUTO 34003KT 2 1/2SM M09/M10 A3043 RMK HAMILTON
METAR KS59 122045Z AUTO 09004KT 10SM M03/M07 A3044 RMK LIBBY
METAR K88M 122045Z AUTO 10SM M01/M08 A3041 RMK EUREKA



USA.gov is the U.S. government's official web portal to all federal, state and local government web resources and services.